Time;durP1;ratioP1;P1;durP2;ratioP2;P2;SDS_P1;SDS_P2;PMS_P1;PMS_P2;Temp;Humidity;BMP_temperature;BMP_pressure;BME280_temperature;BME280_humidity;BME280_pressure;Samples;Min_cycle;Max_cycle;Signal;HPM_P1;HPM_P2
2023/08/20 00:00:29;;;;;;;8.50;4.13;;;17.80;99.90;;;;;;5079016;28;20075;-68
2023/08/20 00:03:04;;;;;;;6.38;3.88;;;17.80;99.90;;;;;;5076397;28;20076;-68
2023/08/20 00:05:33;;;;;;;10.25;3.45;;;17.70;99.90;;;;;;5062035;28;20438;-68
2023/08/20 00:07:58;;;;;;;6.97;3.70;;;17.70;99.90;;;;;;5079852;28;20052;-68
2023/08/20 00:10:24;;;;;;;9.20;3.97;;;17.70;99.90;;;;;;5076783;28;20573;-68
2023/08/20 00:12:50;;;;;;;7.55;3.78;;;17.60;99.90;;;;;;5078931;28;20071;-68
2023/08/20 00:15:16;;;;;;;9.27;3.50;;;17.60;99.90;;;;;;5077851;28;20044;-68
2023/08/20 00:17:42;;;;;;;10.18;3.70;;;17.60;99.90;;;;;;5079955;28;20036;-67
2023/08/20 00:20:16;;;;;;;11.77;3.83;;;17.60;99.90;;;;;;5076250;28;20129;-68
2023/08/20 00:22:44;;;;;;;9.88;3.70;;;17.60;99.90;;;;;;5079393;28;20135;-68
2023/08/20 00:25:14;;;;;;;9.35;3.83;;;17.60;99.90;;;;;;5078029;28;20052;-68
2023/08/20 00:27:41;;;;;;;7.88;3.47;;;17.60;99.90;;;;;;5076207;28;20045;-67
2023/08/20 00:30:08;;;;;;;11.18;4.45;;;17.60;99.90;;;;;;5079704;28;20080;-69
2023/08/20 00:32:34;;;;;;;12.88;4.13;;;17.60;99.90;;;;;;5075887;28;20044;-68
2023/08/20 00:34:59;;;;;;;10.05;5.10;;;17.60;99.90;;;;;;5079561;28;20469;-67
2023/08/20 00:37:25;;;;;;;9.25;4.53;;;17.50;99.90;;;;;;5077828;28;20340;-69
2023/08/20 00:39:54;;;;;;;8.13;4.35;;;17.50;99.90;;;;;;5078924;28;20119;-69
2023/08/20 00:42:20;;;;;;;9.20;4.30;;;17.50;99.90;;;;;;5079257;28;20508;-68
2023/08/20 00:44:46;;;;;;;7.10;4.10;;;17.50;99.90;;;;;;5076941;28;20352;-68
2023/08/20 00:47:13;;;;;;;9.77;4.78;;;17.40;99.90;;;;;;5079130;28;20098;-68
2023/08/20 00:49:40;;;;;;;9.43;4.18;;;17.40;99.90;;;;;;5075126;28;20051;-68
2023/08/20 00:52:09;;;;;;;10.85;4.78;;;17.40;99.90;;;;;;5077745;28;20044;-68
2023/08/20 00:54:35;;;;;;;8.23;4.55;;;17.40;99.90;;;;;;5059450;28;20048;-68
2023/08/20 00:57:06;;;;;;;9.07;4.05;;;17.30;99.90;;;;;;5078308;28;20041;-67
2023/08/20 00:59:32;;;;;;;5.82;3.97;;;17.40;99.90;;;;;;5060880;28;20400;-68
2023/08/20 01:01:58;;;;;;;10.77;4.80;;;17.30;99.90;;;;;;5075353;28;20040;-67
2023/08/20 01:04:27;;;;;;;10.77;4.82;;;17.30;99.90;;;;;;5077604;28;20036;-68
2023/08/20 01:07:29;;;;;;;9.35;4.65;;;17.30;99.90;;;;;;5076084;28;20048;-68
2023/08/20 01:10:17;;;;;;;7.78;4.57;;;17.30;99.90;;;;;;5077679;28;20114;-69
2023/08/20 01:12:45;;;;;;;9.77;4.53;;;17.20;99.90;;;;;;5077519;28;20060;-68
2023/08/20 01:15:13;;;;;;;8.82;4.50;;;17.20;99.90;;;;;;5058008;28;20051;-69
2023/08/20 01:17:43;;;;;;;9.55;4.75;;;17.20;99.90;;;;;;5077505;28;20487;-68
2023/08/20 01:20:13;;;;;;;15.38;5.10;;;17.20;99.90;;;;;;5076626;28;20052;-69
2023/08/20 01:23:07;;;;;;;6.25;4.40;;;17.20;99.90;;;;;;5076631;28;20135;-68
2023/08/20 01:25:50;;;;;;;8.10;4.25;;;17.20;99.90;;;;;;5078686;28;20090;-68
2023/08/20 01:28:26;;;;;;;13.25;5.32;;;17.20;99.90;;;;;;5074669;28;20120;-68
2023/08/20 01:30:53;;;;;;;10.27;4.65;;;17.10;99.90;;;;;;5076679;28;20063;-68
2023/08/20 01:33:20;;;;;;;11.13;5.00;;;17.10;99.90;;;;;;5077454;28;20102;-68
2023/08/20 01:35:45;;;;;;;9.18;4.65;;;17.10;99.90;;;;;;5076053;28;20071;-68
2023/08/20 01:38:11;;;;;;;11.77;5.18;;;17.10;99.90;;;;;;5077374;28;20128;-68
2023/08/20 01:40:37;;;;;;;13.80;5.57;;;17.00;99.90;;;;;;5075954;28;20533;-68
2023/08/20 01:43:03;;;;;;;12.43;4.78;;;17.00;99.90;;;;;;5078222;28;20520;-69
2023/08/20 01:45:28;;;;;;;7.47;4.50;;;17.00;99.90;;;;;;5074477;28;20145;-68
2023/08/20 01:47:54;;;;;;;9.43;4.22;;;17.00;99.90;;;;;;5077069;28;20040;-68
2023/08/20 01:50:20;;;;;;;8.55;4.70;;;17.00;99.90;;;;;;5075480;28;20052;-68
2023/08/20 01:52:46;;;;;;;9.85;5.03;;;17.00;99.90;;;;;;5076235;28;20104;-68
2023/08/20 01:55:12;;;;;;;10.48;4.45;;;17.00;99.90;;;;;;5076996;28;20040;-68
2023/08/20 01:57:37;;;;;;;10.20;4.70;;;16.90;99.90;;;;;;5074695;28;20055;-68
2023/08/20 02:00:07;;;;;;;6.93;4.30;;;16.90;99.90;;;;;;5077051;28;20044;-68
2023/08/20 02:02:34;;;;;;;8.32;4.60;;;16.90;99.90;;;;;;5075901;28;20047;-68
2023/08/20 02:04:59;;;;;;;9.85;4.82;;;16.90;99.90;;;;;;5076831;28;20673;-68
2023/08/20 02:07:25;;;;;;;6.32;4.15;;;16.90;99.90;;;;;;5075258;28;20086;-69
2023/08/20 02:09:51;;;;;;;10.85;4.97;;;16.90;99.90;;;;;;5077255;28;20520;-68
2023/08/20 02:12:18;;;;;;;12.60;4.88;;;16.90;99.90;;;;;;5074508;28;20037;-69
2023/08/20 02:14:43;;;;;;;8.32;4.68;;;16.80;99.90;;;;;;5075224;28;20032;-67
2023/08/20 02:17:12;;;;;;;6.47;4.22;;;16.80;99.90;;;;;;5076571;28;20151;-68
2023/08/20 02:19:38;;;;;;;6.95;4.40;;;16.80;99.90;;;;;;5075413;28;20045;-68
2023/08/20 02:22:04;;;;;;;10.55;5.53;;;16.80;99.90;;;;;;5079131;28;20047;-67
2023/08/20 02:24:30;;;;;;;8.30;4.97;;;16.80;99.90;;;;;;5079102;28;20049;-68
2023/08/20 02:26:56;;;;;;;10.20;4.68;;;16.80;99.90;;;;;;5078548;28;20044;-68
2023/08/20 02:29:22;;;;;;;9.98;5.80;;;16.80;99.90;;;;;;5079794;28;20052;-68
2023/08/20 02:31:48;;;;;;;12.18;5.20;;;16.80;99.90;;;;;;5078903;28;20049;-68
2023/08/20 02:34:14;;;;;;;8.68;5.68;;;16.80;99.90;;;;;;5080042;28;20044;-68
2023/08/20 02:36:39;;;;;;;8.93;5.18;;;16.70;99.90;;;;;;5078736;28;20041;-68
2023/08/20 02:39:07;;;;;;;13.30;6.35;;;16.80;99.90;;;;;;5078907;28;20059;-68
2023/08/20 02:41:36;;;;;;;12.45;5.82;;;16.80;99.90;;;;;;5060329;28;20135;-68
2023/08/20 02:44:03;;;;;;;9.05;5.95;;;16.80;99.90;;;;;;5080169;28;20044;-68
2023/08/20 02:46:29;;;;;;;13.70;7.07;;;16.90;99.90;;;;;;5079625;28;20063;-68
2023/08/20 02:48:55;;;;;;;11.88;6.38;;;16.90;99.90;;;;;;5077400;28;20478;-68
2023/08/20 02:51:20;;;;;;;13.00;6.70;;;16.90;99.90;;;;;;5078143;28;20053;-69
2023/08/20 02:53:46;;;;;;;9.95;6.28;;;16.90;99.90;;;;;;5078367;28;20041;-68
2023/08/20 02:56:12;;;;;;;13.85;7.25;;;16.90;99.90;;;;;;5078016;28;20076;-68
2023/08/20 02:58:37;;;;;;;12.70;6.82;;;16.90;99.90;;;;;;5077947;28;20040;-68
2023/08/20 03:01:03;;;;;;;14.48;6.93;;;16.90;99.90;;;;;;5078149;28;20094;-68
2023/08/20 03:03:29;;;;;;;12.45;6.35;;;16.80;99.90;;;;;;5077154;28;20494;-68
2023/08/20 03:05:55;;;;;;;13.13;5.95;;;16.80;99.90;;;;;;5060878;28;20150;-68
2023/08/20 03:08:21;;;;;;;9.88;6.22;;;16.80;99.90;;;;;;5077986;28;20045;-68
2023/08/20 03:10:46;;;;;;;9.60;5.65;;;16.80;99.90;;;;;;5059262;28;20049;-68
2023/08/20 03:13:12;;;;;;;9.48;5.82;;;16.80;99.90;;;;;;5078036;28;20041;-68
2023/08/20 03:15:38;;;;;;;11.68;6.28;;;16.80;99.90;;;;;;5059481;28;20079;-68
2023/08/20 03:18:04;;;;;;;9.10;5.97;;;16.80;99.90;;;;;;5078215;28;20083;-69
2023/08/20 03:20:33;;;;;;;7.05;5.53;;;16.80;99.90;;;;;;5078393;28;20048;-68
2023/08/20 03:22:58;;;;;;;8.93;6.18;;;16.80;99.90;;;;;;5076711;28;20048;-68
2023/08/20 03:25:24;;;;;;;10.32;5.95;;;16.80;99.90;;;;;;5078364;28;20127;-68
2023/08/20 03:27:51;;;;;;;9.73;6.32;;;16.80;99.90;;;;;;5077518;28;20055;-68
2023/08/20 03:30:17;;;;;;;10.18;6.25;;;16.80;99.90;;;;;;5078602;28;20047;-68
2023/08/20 03:32:43;;;;;;;15.48;6.82;;;16.80;99.90;;;;;;5077235;28;20384;-67
2023/08/20 03:35:09;;;;;;;11.45;6.38;;;16.80;99.90;;;;;;5079110;28;20068;-68
2023/08/20 03:37:35;;;;;;;14.10;6.65;;;16.80;99.90;;;;;;5077851;28;20044;-67
2023/08/20 03:40:02;;;;;;;16.42;7.47;;;16.80;99.90;;;;;;5077794;28;20683;-68
2023/08/20 03:42:27;;;;;;;14.98;7.18;;;16.80;99.90;;;;;;5078655;28;20060;-68
2023/08/20 03:44:53;;;;;;;13.48;7.07;;;16.80;99.90;;;;;;5077034;28;20040;-68
2023/08/20 03:47:22;;;;;;;12.52;6.75;;;16.80;99.90;;;;;;5077313;28;20049;-68
2023/08/20 03:49:48;;;;;;;14.45;7.05;;;16.90;99.90;;;;;;5077008;28;20072;-68
2023/08/20 03:52:14;;;;;;;12.00;6.90;;;16.80;99.90;;;;;;5078733;28;20082;-68
2023/08/20 03:54:40;;;;;;;11.75;7.03;;;16.80;99.90;;;;;;5076886;28;20052;-69
2023/08/20 03:57:05;;;;;;;11.20;7.20;;;16.80;99.90;;;;;;5076605;28;20047;-69
2023/08/20 03:59:31;;;;;;;12.15;6.75;;;16.70;99.90;;;;;;5078194;28;20056;-68
2023/08/20 04:01:57;;;;;;;10.88;7.07;;;16.70;99.90;;;;;;5075496;28;20073;-68
2023/08/20 04:04:23;;;;;;;8.05;6.43;;;16.70;99.90;;;;;;5078080;28;20052;-69
2023/08/20 04:06:50;;;;;;;10.50;6.82;;;16.70;99.90;;;;;;5075271;28;20047;-69
2023/08/20 04:09:16;;;;;;;11.00;6.40;;;16.60;99.90;;;;;;5077896;28;20052;-69
2023/08/20 04:11:42;;;;;;;11.55;6.57;;;16.60;99.90;;;;;;5076944;28;20076;-68
2023/08/20 04:14:08;;;;;;;15.80;7.03;;;16.60;99.90;;;;;;5077731;28;20048;-69
2023/08/20 04:16:34;;;;;;;18.60;8.38;;;16.60;99.90;;;;;;5076324;28;20039;-69
2023/08/20 04:19:00;;;;;;;11.77;7.15;;;16.70;99.90;;;;;;5076598;28;20048;-68
2023/08/20 04:21:26;;;;;;;11.85;7.18;;;16.70;99.90;;;;;;5077696;28;20219;-68
2023/08/20 04:23:52;;;;;;;12.10;7.82;;;16.60;99.90;;;;;;5093866;28;20062;-68
2023/08/20 04:26:18;;;;;;;13.63;7.68;;;16.60;99.90;;;;;;5096619;28;20040;-67
2023/08/20 04:28:44;;;;;;;14.45;7.72;;;16.60;99.90;;;;;;5095181;28;20046;-67
2023/08/20 04:31:10;;;;;;;10.75;7.07;;;16.60;99.90;;;;;;5097623;28;20123;-68
2023/08/20 04:33:35;;;;;;;11.80;7.25;;;16.60;99.90;;;;;;5096014;28;20111;-68
2023/08/20 04:36:01;;;;;;;13.57;7.40;;;16.60;99.90;;;;;;5095529;28;20082;-68
2023/08/20 04:38:27;;;;;;;12.27;7.55;;;16.60;99.90;;;;;;5097404;28;20056;-67
2023/08/20 04:40:53;;;;;;;14.63;8.27;;;16.60;99.90;;;;;;5094922;28;20055;-67
2023/08/20 04:43:18;;;;;;;13.07;7.45;;;16.60;99.90;;;;;;5097071;28;20039;-66
2023/08/20 04:45:44;;;;;;;16.73;8.05;;;16.60;99.90;;;;;;5096142;28;20105;-67
2023/08/20 04:48:10;;;;;;;14.18;8.38;;;16.60;99.90;;;;;;5079813;28;20058;-68
2023/08/20 04:50:35;;;;;;;11.52;7.47;;;16.50;99.90;;;;;;5096914;28;20412;-68
2023/08/20 04:53:01;;;;;;;17.23;8.43;;;16.60;99.90;;;;;;5094856;28;20566;-67
2023/08/20 04:55:28;;;;;;;17.05;8.23;;;16.60;99.90;;;;;;5096148;28;20139;-68
2023/08/20 04:57:54;;;;;;;17.15;8.57;;;16.60;99.90;;;;;;5094748;28;20529;-67
2023/08/20 05:00:21;;;;;;;15.82;8.60;;;16.60;99.90;;;;;;5079167;28;20051;-68
2023/08/20 05:02:46;;;;;;;16.60;9.75;;;16.60;99.90;;;;;;5095729;28;20048;-68
2023/08/20 05:05:12;;;;;;;14.35;8.80;;;16.60;99.90;;;;;;5096315;28;20108;-67
2023/08/20 05:07:38;;;;;;;13.38;8.57;;;16.70;99.90;;;;;;5096188;28;20082;-67
2023/08/20 05:10:04;;;;;;;17.08;9.18;;;16.70;99.90;;;;;;5095247;28;20087;-68
2023/08/20 05:12:30;;;;;;;12.05;8.75;;;16.70;99.90;;;;;;5096018;28;20412;-68
2023/08/20 05:14:56;;;;;;;12.05;8.85;;;16.80;99.90;;;;;;5096013;28;20048;-67
2023/08/20 05:17:22;;;;;;;15.75;9.35;;;17.00;99.90;;;;;;5097376;28;20040;-67
2023/08/20 05:19:47;;;;;;;13.43;9.43;;;17.00;99.90;;;;;;5095804;28;20127;-68
2023/08/20 05:22:13;;;;;;;13.88;8.52;;;17.20;99.90;;;;;;5097525;28;20040;-68
2023/08/20 05:24:39;;;;;;;14.88;8.93;;;17.20;99.90;;;;;;5061572;28;20044;-68
2023/08/20 05:27:06;;;;;;;14.95;8.80;;;17.40;99.90;;;;;;5095376;28;20040;-68
2023/08/20 05:29:32;;;;;;;15.95;8.90;;;17.40;99.90;;;;;;5095896;28;20054;-68
2023/08/20 05:31:57;;;;;;;12.65;8.77;;;17.50;99.90;;;;;;5095805;28;20053;-68
2023/08/20 05:34:23;;;;;;;17.92;9.43;;;17.60;99.90;;;;;;5095624;28;20166;-67
2023/08/20 05:36:49;;;;;;;13.90;9.07;;;17.70;99.90;;;;;;5095517;28;20036;-68
2023/08/20 05:39:14;;;;;;;17.02;9.45;;;17.80;99.90;;;;;;5097503;28;20040;-68
2023/08/20 05:41:40;;;;;;;12.65;8.30;;;17.90;99.90;;;;;;5095899;28;20115;-69
2023/08/20 05:44:06;;;;;;;13.75;7.95;;;18.00;99.90;;;;;;5095348;28;20068;-68
2023/08/20 05:46:32;;;;;;;12.43;8.18;;;18.10;99.90;;;;;;5096981;28;20389;-68
2023/08/20 05:48:57;;;;;;;17.33;8.32;;;18.10;99.90;;;;;;5095543;28;20048;-68
2023/08/20 05:51:23;;;;;;;11.20;8.45;;;18.20;99.90;;;;;;5096763;28;20407;-67
2023/08/20 05:53:49;;;;;;;13.05;7.38;;;18.30;99.90;;;;;;5095918;28;20032;-68
2023/08/20 05:56:14;;;;;;;12.63;7.75;;;18.40;99.90;;;;;;5101353;28;20113;-68
2023/08/20 05:58:40;;;;;;;14.68;7.43;;;18.40;99.90;;;;;;5081412;28;20075;-69
2023/08/20 06:01:06;;;;;;;13.50;7.20;;;18.50;99.90;;;;;;5101093;28;20044;-67
2023/08/20 06:03:32;;;;;;;14.68;7.57;;;18.60;99.90;;;;;;5100302;28;20131;-68
2023/08/20 06:05:58;;;;;;;12.73;6.88;;;18.60;99.90;;;;;;5097912;28;20109;-68
2023/08/20 06:08:24;;;;;;;13.05;6.45;;;18.70;99.90;;;;;;5099389;28;20036;-67
2023/08/20 06:10:50;;;;;;;14.20;6.90;;;18.70;99.90;;;;;;5098938;28;20067;-68
2023/08/20 06:13:16;;;;;;;13.82;6.60;;;18.90;99.90;;;;;;5100994;28;20494;-68
2023/08/20 06:15:42;;;;;;;14.63;6.35;;;19.00;99.90;;;;;;5082682;28;20037;-68
2023/08/20 06:18:08;;;;;;;11.80;6.20;;;19.00;99.90;;;;;;5079918;28;20113;-69
2023/08/20 06:20:33;;;;;;;10.73;6.10;;;19.10;99.90;;;;;;5077460;28;20040;-69
2023/08/20 06:22:59;;;;;;;12.18;5.68;;;19.10;99.90;;;;;;5060374;28;20615;-68
2023/08/20 06:25:25;;;;;;;12.52;5.13;;;19.20;99.90;;;;;;5061460;28;20052;-68
2023/08/20 06:27:51;;;;;;;14.02;5.78;;;19.30;99.90;;;;;;5077092;28;20044;-68
2023/08/20 06:30:16;;;;;;;12.85;5.70;;;19.40;99.90;;;;;;5080220;28;20422;-68
2023/08/20 06:32:44;;;;;;;16.95;6.43;;;19.50;99.90;;;;;;5078469;28;20467;-68
2023/08/20 06:35:10;;;;;;;12.52;6.15;;;19.50;99.90;;;;;;5080401;28;20901;-67
2023/08/20 06:37:38;;;;;;;9.70;5.45;;;19.50;99.90;;;;;;5079111;28;20049;-68
2023/08/20 06:40:04;;;;;;;9.38;5.28;;;19.60;99.90;;;;;;5077809;28;20043;-67
2023/08/20 06:42:30;;;;;;;10.80;5.28;;;19.60;99.90;;;;;;5078479;28;20056;-68
2023/08/20 06:44:56;;;;;;;13.15;4.88;;;19.70;99.90;;;;;;5078290;28;20127;-68
2023/08/20 06:47:21;;;;;;;8.80;5.10;;;19.80;99.90;;;;;;5078050;28;20105;-67
2023/08/20 06:49:47;;;;;;;10.38;4.95;;;19.90;99.90;;;;;;5076805;28;20048;-68
2023/08/20 06:52:13;;;;;;;13.73;5.63;;;19.90;99.90;;;;;;5080153;28;20056;-67
2023/08/20 06:54:38;;;;;;;10.13;4.93;;;19.90;99.90;;;;;;5060513;28;20049;-68
2023/08/20 06:57:05;;;;;;;11.30;5.60;;;19.90;99.90;;;;;;5079084;28;20076;-68
2023/08/20 06:59:30;;;;;;;15.02;5.22;;;19.90;99.90;;;;;;5078215;28;20044;-68
2023/08/20 07:01:56;;;;;;;12.35;4.57;;;19.90;99.90;;;;;;5076680;28;20038;-68
2023/08/20 07:04:22;;;;;;;8.43;4.50;;;19.90;99.90;;;;;;5078076;28;20048;-67
2023/08/20 07:06:47;;;;;;;9.95;4.47;;;19.90;99.90;;;;;;5077005;28;20419;-68
2023/08/20 07:09:13;;;;;;;13.57;4.70;;;20.00;99.90;;;;;;5061536;28;20072;-68
2023/08/20 07:11:39;;;;;;;9.77;4.35;;;20.00;99.90;;;;;;5077393;28;20048;-68
2023/08/20 07:14:05;;;;;;;10.52;4.32;;;20.00;99.90;;;;;;5079570;28;20048;-68
2023/08/20 07:16:31;;;;;;;9.07;4.65;;;20.00;99.90;;;;;;5077592;28;20039;-68
2023/08/20 07:18:57;;;;;;;8.73;3.83;;;20.00;99.90;;;;;;5076670;28;20047;-68
2023/08/20 07:21:23;;;;;;;12.15;3.67;;;20.10;99.90;;;;;;5061322;28;20048;-68
2023/08/20 07:23:48;;;;;;;11.38;3.80;;;20.10;99.90;;;;;;5076432;28;20112;-68
2023/08/20 07:26:15;;;;;;;10.82;3.75;;;20.20;99.90;;;;;;5079252;28;20690;-69
2023/08/20 07:28:56;;;;;;;13.48;4.13;;;20.20;99.90;;;;;;5077742;28;20056;-68
2023/08/20 07:31:29;;;;;;;12.10;3.92;;;20.10;99.90;;;;;;5078194;28;20040;-68
2023/08/20 07:33:56;;;;;;;9.55;3.45;;;20.10;99.90;;;;;;5078848;28;20108;-68
2023/08/20 07:36:24;;;;;;;13.10;3.90;;;20.20;99.90;;;;;;5077847;28;20091;-67
2023/08/20 07:38:51;;;;;;;12.15;3.70;;;20.20;99.90;;;;;;5077845;28;20041;-68
2023/08/20 07:41:19;;;;;;;13.40;3.65;;;20.30;99.90;;;;;;5077601;28;20051;-68
2023/08/20 07:43:46;;;;;;;8.55;3.30;;;20.40;99.90;;;;;;5079215;28;20048;-68
2023/08/20 07:46:12;;;;;;;13.50;3.25;;;20.40;99.90;;;;;;5078305;28;20040;-67
2023/08/20 07:48:38;;;;;;;10.50;3.53;;;20.50;99.90;;;;;;5076994;28;20124;-67
2023/08/20 07:51:04;;;;;;;15.60;3.95;;;20.50;99.90;;;;;;5090864;28;20103;-68
2023/08/20 07:53:31;;;;;;;11.35;3.35;;;20.50;99.90;;;;;;5093964;28;20044;-68
2023/08/20 07:55:57;;;;;;;9.65;2.97;;;20.50;99.90;;;;;;5076141;28;20067;-68
2023/08/20 07:58:23;;;;;;;13.50;3.97;;;20.50;99.90;;;;;;5076604;28;20032;-68
2023/08/20 08:00:48;;;;;;;10.27;3.55;;;20.60;99.90;;;;;;5078173;28;20097;-67
2023/08/20 08:03:14;;;;;;;13.43;3.80;;;20.70;99.90;;;;;;5076837;28;20047;-68
2023/08/20 08:05:53;;;;;;;10.90;3.22;;;20.70;99.90;;;;;;5079051;28;20041;-68
2023/08/20 08:08:21;;;;;;;7.50;2.83;;;20.70;99.90;;;;;;5077930;28;20063;-67
2023/08/20 08:10:47;;;;;;;11.68;3.45;;;20.90;99.90;;;;;;5094670;28;20082;-68
2023/08/20 08:13:19;;;;;;;8.63;2.97;;;21.00;99.90;;;;;;5098394;28;20044;-67
2023/08/20 08:15:45;;;;;;;7.85;2.53;;;21.00;99.90;;;;;;5095002;28;20050;-67
2023/08/20 08:18:12;;;;;;;10.60;2.60;;;21.00;99.90;;;;;;5079142;28;20508;-67
2023/08/20 08:20:37;;;;;;;8.23;2.15;;;21.00;99.90;;;;;;5093234;28;20036;-67
2023/08/20 08:23:03;;;;;;;8.27;2.25;;;21.00;99.90;;;;;;5076460;28;20450;-67
2023/08/20 08:25:29;;;;;;;8.95;2.45;;;20.90;99.90;;;;;;5076868;28;20116;-67
2023/08/20 08:27:55;;;;;;;11.18;2.08;;;21.00;99.90;;;;;;5074351;28;20033;-67
2023/08/20 08:30:21;;;;;;;10.02;2.38;;;21.30;99.90;;;;;;5085202;28;20049;-67
2023/08/20 08:32:46;;;;;;;10.07;2.50;;;21.20;99.90;;;;;;5075612;28;20086;-68
2023/08/20 08:35:12;;;;;;;10.30;2.40;;;21.20;99.90;;;;;;5077613;28;20041;-68
2023/08/20 08:37:38;;;;;;;9.27;2.17;;;21.30;99.90;;;;;;5076710;28;20096;-68
2023/08/20 08:40:07;;;;;;;5.10;1.92;;;21.20;99.90;;;;;;5076266;28;20067;-67
2023/08/20 08:42:33;;;;;;;9.60;2.78;;;21.40;99.90;;;;;;5073521;28;20132;-68
2023/08/20 08:45:03;;;;;;;8.25;1.73;;;21.30;99.90;;;;;;5074456;28;20098;-67
2023/08/20 08:47:29;;;;;;;4.75;1.90;;;21.50;99.90;;;;;;5077767;28;20048;-68
2023/08/20 08:49:56;;;;;;;7.32;2.03;;;21.60;99.90;;;;;;5074930;28;20494;-68
2023/08/20 08:52:26;;;;;;;11.25;1.80;;;21.60;99.90;;;;;;5077523;28;20115;-67
2023/08/20 08:54:52;;;;;;;7.22;2.25;;;21.60;99.90;;;;;;5059228;28;20076;-67
2023/08/20 08:57:18;;;;;;;4.40;1.63;;;21.60;99.90;;;;;;5075132;28;20048;-68
2023/08/20 08:59:44;;;;;;;5.28;1.95;;;21.70;99.90;;;;;;5077139;28;20046;-68
2023/08/20 09:02:11;;;;;;;7.82;1.48;;;21.70;99.90;;;;;;5076119;28;20048;-69
2023/08/20 09:04:43;;;;;;;5.63;1.60;;;21.70;99.90;;;;;;5075798;28;20094;-68
2023/08/20 09:07:13;;;;;;;8.18;1.50;;;21.80;99.90;;;;;;5084808;28;20504;-68
2023/08/20 09:09:43;;;;;;;4.97;1.27;;;21.80;99.90;;;;;;5097182;28;20484;-68
2023/08/20 09:12:16;;;;;;;7.78;1.55;;;21.90;99.90;;;;;;5096944;28;20151;-68
2023/08/20 09:14:51;;;;;;;6.70;1.27;;;21.90;99.90;;;;;;5094552;28;20062;-68
2023/08/20 09:17:19;;;;;;;5.30;1.23;;;21.90;99.90;;;;;;5091941;28;20055;-68
2023/08/20 09:19:46;;;;;;;4.78;1.20;;;21.90;99.90;;;;;;5095329;28;20414;-69
2023/08/20 09:22:12;;;;;;;6.38;1.33;;;21.90;99.90;;;;;;5096166;28;20036;-68
2023/08/20 09:24:53;;;;;;;6.20;1.33;;;21.90;99.90;;;;;;5096142;28;20103;-70
2023/08/20 09:27:19;;;;;;;4.45;1.00;;;21.90;99.90;;;;;;5094458;28;20055;-69
2023/08/20 09:29:47;;;;;;;6.63;1.48;;;22.00;99.90;;;;;;5095206;28;20071;-69
2023/08/20 09:32:18;;;;;;;7.10;1.23;;;22.10;99.90;;;;;;5095821;28;20040;-65
2023/08/20 09:34:44;;;;;;;6.38;1.50;;;22.10;99.90;;;;;;5097244;28;20135;-71
2023/08/20 09:37:10;;;;;;;5.00;1.33;;;22.30;99.90;;;;;;5095735;28;20084;-70
2023/08/20 09:39:37;;;;;;;6.55;1.70;;;22.30;99.90;;;;;;5095524;28;20131;-71
2023/08/20 09:42:04;;;;;;;8.05;1.38;;;22.40;99.90;;;;;;5096210;28;20048;-69
2023/08/20 09:44:36;;;;;;;7.00;1.83;;;22.50;99.90;;;;;;5095924;28;20082;-66
2023/08/20 09:47:06;;;;;;;7.40;1.40;;;22.40;99.90;;;;;;5097293;28;20040;-66
2023/08/20 09:49:39;;;;;;;9.60;1.60;;;22.40;99.90;;;;;;5075536;28;20101;-68
2023/08/20 09:52:16;;;;;;;6.57;1.50;;;22.30;99.90;;;;;;5077517;28;20905;-70
2023/08/20 09:54:59;;;;;;;5.65;1.60;;;22.30;99.90;;;;;;5074956;28;20053;-69
2023/08/20 09:57:33;;;;;;;5.50;1.55;;;22.30;99.90;;;;;;5075621;28;20051;-69
2023/08/20 10:00:00;;;;;;;6.93;1.27;;;22.40;99.90;;;;;;5058571;28;20103;-71
2023/08/20 10:02:26;;;;;;;4.03;1.25;;;22.40;99.90;;;;;;5075431;28;20048;-71
2023/08/20 10:04:52;;;;;;;8.85;1.35;;;22.40;99.90;;;;;;5088567;28;20096;-70
2023/08/20 10:07:19;;;;;;;5.38;1.50;;;22.50;99.90;;;;;;5075545;28;20128;-71
2023/08/20 10:09:46;;;;;;;4.70;1.30;;;22.50;99.90;;;;;;5075788;28;20053;-70
2023/08/20 10:12:13;;;;;;;3.67;1.20;;;22.50;99.90;;;;;;5076048;28;20040;-70
2023/08/20 10:14:40;;;;;;;5.03;1.30;;;22.50;99.90;;;;;;5075089;28;20048;-72
2023/08/20 10:17:08;;;;;;;5.47;1.10;;;22.70;99.90;;;;;;5075030;28;20711;-70
2023/08/20 10:19:34;;;;;;;7.60;1.38;;;22.70;99.90;;;;;;5060084;28;20045;-71
2023/08/20 10:22:02;;;;;;;7.55;2.22;;;22.80;99.90;;;;;;5076844;28;20132;-68
2023/08/20 10:24:28;;;;;;;5.03;1.40;;;22.70;99.90;;;;;;5053694;28;20059;-70
2023/08/20 10:27:08;;;;;;;3.03;0.93;;;22.80;99.90;;;;;;5070468;28;20037;-70
2023/08/20 10:29:39;;;;;;;4.05;1.05;;;22.80;99.90;;;;;;5058375;28;20100;-71
2023/08/20 10:32:12;;;;;;;3.50;1.15;;;22.90;99.90;;;;;;5048929;28;20075;-70
2023/08/20 10:34:49;;;;;;;5.35;1.10;;;22.80;99.90;;;;;;5069702;28;20060;-70
2023/08/20 10:37:15;;;;;;;6.45;1.00;;;22.80;99.90;;;;;;5048975;28;20045;-71
2023/08/20 10:39:46;;;;;;;7.07;1.00;;;22.90;99.90;;;;;;5052662;28;20052;-69
2023/08/20 10:42:15;;;;;;;4.70;1.08;;;22.90;99.90;;;;;;5061978;28;20045;-70
2023/08/20 10:44:58;;;;;;;3.95;1.08;;;22.90;99.90;;;;;;5078232;28;20561;-72
2023/08/20 10:47:25;;;;;;;3.40;0.90;;;22.90;99.90;;;;;;5075197;28;20052;-71
2023/08/20 10:49:54;;;;;;;5.28;0.85;;;23.00;99.90;;;;;;5057607;28;20062;-72
2023/08/20 10:52:23;;;;;;;4.40;1.10;;;23.10;99.90;;;;;;5080001;28;20064;-72
2023/08/20 10:54:52;;;;;;;4.88;0.85;;;23.10;99.90;;;;;;5072166;28;20033;-70
2023/08/20 10:57:21;;;;;;;2.70;1.02;;;23.10;99.90;;;;;;5077426;28;20108;-71
2023/08/20 11:00:00;;;;;;;4.35;1.00;;;23.10;99.90;;;;;;5077963;28;20040;-70
2023/08/20 11:02:27;;;;;;;6.68;1.02;;;23.20;99.90;;;;;;5060026;28;20052;-71
2023/08/20 11:04:53;;;;;;;5.68;1.10;;;23.20;99.90;;;;;;5078482;28;20044;-70
2023/08/20 11:07:20;;;;;;;3.03;0.95;;;23.20;99.90;;;;;;5077298;28;20048;-70
2023/08/20 11:09:48;;;;;;;4.32;0.80;;;23.20;99.90;;;;;;5078674;28;20052;-70
2023/08/20 11:12:20;;;;;;;7.22;1.30;;;23.20;99.90;;;;;;5077900;28;20051;-70
2023/08/20 11:14:46;;;;;;;6.65;1.20;;;23.20;99.90;;;;;;5077012;28;20048;-71
2023/08/20 11:17:13;;;;;;;6.40;2.00;;;23.30;99.90;;;;;;5079263;28;20096;-70
2023/08/20 11:19:39;;;;;;;3.80;0.98;;;23.30;99.90;;;;;;5077891;28;20064;-70
2023/08/20 11:22:05;;;;;;;4.45;1.35;;;23.40;99.90;;;;;;5079373;28;20074;-70
2023/08/20 11:24:32;;;;;;;6.38;1.25;;;23.40;99.90;;;;;;5076188;28;20052;-70
2023/08/20 11:26:58;;;;;;;3.90;0.98;;;23.50;99.90;;;;;;5076998;28;20047;-70
2023/08/20 11:29:26;;;;;;;3.58;1.13;;;23.40;99.90;;;;;;5078854;28;20079;-70
2023/08/20 11:31:52;;;;;;;3.88;1.00;;;23.60;99.90;;;;;;5077616;28;20044;-70
2023/08/20 11:34:21;;;;;;;3.50;1.00;;;23.60;99.90;;;;;;5079012;28;20050;-70
2023/08/20 11:36:48;;;;;;;7.55;0.98;;;23.60;99.90;;;;;;5075413;28;20040;-72
2023/08/20 11:39:13;;;;;;;6.63;1.20;;;23.60;99.90;;;;;;5070663;28;20069;-71
2023/08/20 11:41:40;;;;;;;6.93;1.25;;;23.60;99.90;;;;;;5059756;28;20044;-71
2023/08/20 11:44:09;;;;;;;4.28;1.10;;;23.80;99.90;;;;;;5078384;28;20055;-71
2023/08/20 11:46:43;;;;;;;2.92;0.80;;;23.80;99.90;;;;;;5070585;28;20041;-71
2023/08/20 11:49:10;;;;;;;5.15;1.10;;;23.70;99.90;;;;;;5070747;28;20108;-71
2023/08/20 11:51:52;;;;;;;5.47;1.20;;;23.90;99.90;;;;;;5076740;28;20041;-70
2023/08/20 11:54:19;;;;;;;6.55;1.30;;;23.90;99.90;;;;;;5073568;28;20039;-72
2023/08/20 11:56:46;;;;;;;6.88;1.00;;;23.90;99.90;;;;;;5073176;28;20065;-71
2023/08/20 11:59:14;;;;;;;3.50;1.00;;;23.90;99.90;;;;;;5077177;28;20044;-71
2023/08/20 12:01:39;;;;;;;5.05;1.20;;;23.90;99.90;;;;;;5075893;28;20040;-71
2023/08/20 12:04:07;;;;;;;3.80;0.90;;;24.00;99.90;;;;;;5076907;28;20057;-71
2023/08/20 12:06:35;;;;;;;3.88;0.70;;;24.00;99.90;;;;;;5076913;28;20071;-70
2023/08/20 12:09:04;;;;;;;4.72;0.98;;;24.00;99.90;;;;;;5076873;28;20083;-69
2023/08/20 12:11:30;;;;;;;2.58;0.73;;;24.00;99.90;;;;;;5074437;28;20072;-71
2023/08/20 12:13:57;;;;;;;4.60;1.00;;;24.00;99.90;;;;;;5076376;28;20169;-69
2023/08/20 12:16:24;;;;;;;3.35;0.68;;;23.90;99.90;;;;;;5060555;28;20040;-69
2023/08/20 12:18:52;;;;;;;4.65;1.38;;;23.80;99.90;;;;;;5077158;28;20075;-75
2023/08/20 12:21:18;;;;;;;3.88;0.80;;;23.90;99.90;;;;;;5078492;28;20064;-75
2023/08/20 12:23:44;;;;;;;4.85;0.80;;;24.00;99.90;;;;;;5075783;28;20082;-75
2023/08/20 12:26:10;;;;;;;2.70;1.00;;;24.00;99.90;;;;;;5077315;28;20048;-74
2023/08/20 12:28:35;;;;;;;1.20;0.82;;;24.10;99.90;;;;;;5075908;28;20064;-76
2023/08/20 12:31:02;;;;;;;5.35;1.00;;;24.10;99.90;;;;;;5078025;28;20052;-75
2023/08/20 12:33:28;;;;;;;4.13;0.68;;;24.30;99.90;;;;;;5076599;28;20052;-75
2023/08/20 12:35:55;;;;;;;3.53;0.80;;;24.40;99.90;;;;;;5075760;28;20102;-76
2023/08/20 12:38:21;;;;;;;5.18;0.90;;;24.40;99.90;;;;;;5060042;28;20059;-75
2023/08/20 12:40:47;;;;;;;2.85;0.52;;;24.40;99.90;;;;;;5075719;28;20044;-74
2023/08/20 12:43:12;;;;;;;2.92;0.93;;;24.40;99.90;;;;;;5060235;28;20131;-75